Observations for NEW YORK JF KENNEDY, NY (JFK)

KJFK 140751Z 12003KT 8SM FEW017 SCT250 22/22 A2987 RMK AO2 SLP115 T02170217 
KJFK 140651Z 08004KT 10SM SCT021 BKN250 22/22 A2988 RMK AO2 SLP118 T02220222
KJFK 140551Z 01004KT 10SM FEW012 FEW027 SCT250 23/23 A2989 RMK AO2 SLP122 T02280228 10239 20222 56010   
KJFK 140451Z 00000KT 10SM FEW012 SCT250 23/23 A2991 RMK AO2 SLP127 T02280228 402500217  
KJFK 140351Z 21004KT 10SM SCT250 22/22 A2990 RMK AO2 SLP124 T02220222   
KJFK 140251Z 25007KT 10SM FEW013 SCT250 23/23 A2992 RMK AO2 SLP132 T02330233 53007  
KJFK 140151Z 19005KT 10SM FEW009 FEW025 FEW250 23/23 A2991 RMK AO2 SLP127 T02280228 
KJFK 140051Z 23007KT 10SM SCT008 SCT025 SCT050 23/23 A2990 RMK AO2 SLP126 T02280228 
KJFK 140040Z 23007KT 10SM SCT008 SCT025 SCT050 23/23 A2990 RMK AO2 T02280228
KJFK 132351Z 22006KT 10SM SCT010 BKN024 BKN055 BKN250 24/23 A2990 RMK AO2 SLP125 60000 T02390233 10250 20233 55002  
KJFK 132334Z 21005KT 10SM SCT010 BKN024 BKN047 BKN250 24/23 A2989 RMK AO2 T02390233
KJFK 132251Z 19006KT 10SM BKN012 BKN036 BKN049 24/24 A2989 RMK AO2 RAE00 SLP120 P0000 T02390239 
KJFK 132151Z 21005KT 10SM -RA BKN014 BKN027 24/24 A2989 RMK AO2 RAB36 SLP120 P0000 T02390239
KJFK 132051Z 05004KT 10SM BKN014 BKN033 BKN049 24/23 A2990 RMK AO2 RAE37 SLP126 P0000 60000 T02440233 56014 
KJFK 131951Z 02008KT 10SM -RA BKN011 OVC021 24/23 A2992 RMK AO2 RAB36 SLP130 P0000 T02390233
KJFK 131851Z 05012KT 10SM BKN013 OVC027 25/23 A2992 RMK AO2 SLP132 T02500233
KJFK 131751Z 04009KT 10SM OVC012 23/23 A2995 RMK AO2 RAE05 SLP140 P0000 60060 T02330233 10239 20217 58018   
KJFK 131706Z 04014KT 10SM FEW006 BKN012 OVC033 23/23 A2995 RMK AO2 RAE05 P0000 T02330233
KJFK 131651Z 03011KT 10SM -RA FEW007 BKN015 OVC120 23/23 A2996 RMK AO2 SLP146 P0011 T02280228   
KJFK 131551Z 03011KT 10SM -RA SCT009 BKN024 OVC095 22/22 A2999 RMK AO2 SLP155 P0005 T02220222   
KJFK 131543Z 03013KT 7SM -RA SCT009 BKN022 OVC090 22/22 A2999 RMK AO2 P0004 T02220222
KJFK 131451Z 04010KT 7SM -RA OVC009 22/22 A3000 RMK AO2 SLP158 CIG 007V011 P0010 60044 T02220222 58006  
KJFK 131351Z 03009KT 3SM -RA BR BKN008 BKN015 OVC038 22/22 A3001 RMK AO2 SFC VIS 4 SLP161 BKN008 V SCT P0031 T02170217  
KJFK 131337Z 03010KT 2 1/2SM RA BR SCT006 BKN012 OVC055 22/22 A3001 RMK AO2 SFCVIS 4 P0029 T02170217
KJFK 131324Z 03010KT 1SM R04R/3500V6000FT +RA BR FEW006 BKN010 OVC047 22/22 A3001 RMK AO2 SFC VIS 2 1/2 P0019 T02220222
KJFK 131251Z 03011KT 5SM RA BR BKN010 OVC022 22/22 A3001 RMK AO2 RAB16 SLP162 CIG 008V012 P0003 T02220222   
KJFK 131151Z 05013KT 10SM OVC011 23/22 A3002 RMK AO2 SLP164 70184 T02280222 10233 20222 50003   
KJFK 131051Z 04007KT 10SM OVC011 23/22 A3003 RMK AO2 SLP167 T02280222   
KJFK 130951Z 04009KT 10SM OVC012 23/22 A3001 RMK AO2 SLP162 T02280222   
KJFK 130924Z 05009KT 10SM BKN012 OVC150 23/22 A3002 RMK AO2 T02280222
KJFK 130851Z 05011KT 10SM SCT012 OVC150 23/22 A3001 RMK AO2 SLP161 T02280222 56012  
KJFK 130751Z 05010KT 10SM FEW021 SCT045 OVC250 23/22 A3002 RMK AO2 SLP166 T02280222